Time;durP1;ratioP1;P1;durP2;ratioP2;P2;SDS_P1;SDS_P2;PMS_P1;PMS_P2;Temp;Humidity;BMP_temperature;BMP_pressure;BME280_temperature;BME280_humidity;BME280_pressure;Samples;Min_cycle;Max_cycle;Signal;HPM_P1;HPM_P2
2023/05/03 00:01:14;;;;;;;2.80;1.08;;;;;;;7.04;100.00;99400.63;15282009;19;20534;-46
2023/05/03 00:06:39;;;;;;;3.47;0.80;;;;;;;7.04;100.00;99394.41;15279635;19;20018;-49
2023/05/03 00:12:06;;;;;;;2.10;0.75;;;;;;;6.98;100.00;99400.22;15277139;19;20014;-46
2023/05/03 00:17:31;;;;;;;2.28;0.95;;;;;;;6.95;100.00;99406.66;15275171;19;20015;-43
2023/05/03 00:22:55;;;;;;;3.22;1.17;;;;;;;6.92;100.00;99393.50;15281872;19;20485;-48
2023/05/03 00:28:23;;;;;;;2.70;1.02;;;;;;;6.86;100.00;99393.97;15275452;19;20641;-50
2023/05/03 00:33:47;;;;;;;3.00;1.00;;;;;;;6.83;100.00;99391.50;15280096;19;20014;-44
2023/05/03 00:39:13;;;;;;;5.32;1.17;;;;;;;6.75;100.00;99384.03;15275120;19;20010;-45
2023/05/03 00:44:40;;;;;;;3.47;1.00;;;;;;;6.69;100.00;99382.66;15275021;19;20010;-44
2023/05/03 00:50:14;;;;;;;3.00;1.10;;;;;;;6.61;100.00;99377.03;15273376;19;20038;-49
2023/05/03 00:55:39;;;;;;;4.15;0.90;;;;;;;6.50;100.00;99366.25;15275048;19;20035;-45
2023/05/03 01:01:06;;;;;;;2.75;1.27;;;;;;;6.27;100.00;99372.28;15279131;19;20014;-48
2023/05/03 01:06:42;;;;;;;2.65;1.10;;;;;;;6.12;100.00;99360.88;15273014;19;20090;-50
2023/05/03 01:12:25;;;;;;;3.95;1.20;;;;;;;6.04;100.00;99357.88;15276776;19;20018;-46
2023/05/03 01:17:53;;;;;;;;;;;;;;;5.92;100.00;99367.59;15267216;19;20053;-46
2023/05/03 01:23:23;;;;;;;2.25;1.20;;;;;;;5.89;100.00;99364.28;15278658;19;19928;-46
2023/05/03 01:28:50;;;;;;;2.28;1.17;;;;;;;5.80;100.00;99352.41;15269377;19;20019;-44
2023/05/03 01:34:33;;;;;;;3.20;1.20;;;;;;;5.70;100.00;99365.59;15271922;19;20007;-45
2023/05/03 01:40:03;;;;;;;3.28;1.30;;;;;;;5.57;100.00;99372.75;15270065;19;20021;-47
2023/05/03 01:45:31;;;;;;;3.40;1.30;;;;;;;5.49;100.00;99368.75;15271042;19;20014;-44
2023/05/03 01:51:02;;;;;;;4.32;1.13;;;;;;;5.49;100.00;99367.91;15265474;19;20022;-42
2023/05/03 01:56:27;;;;;;;1.77;1.10;;;;;;;5.44;100.00;99362.91;15270077;19;20031;-46
2023/05/03 02:01:54;;;;;;;2.70;1.30;;;;;;;5.43;100.00;99369.19;15270783;19;20022;-44
2023/05/03 02:07:18;;;;;;;2.28;1.13;;;;;;;5.15;100.00;99371.06;15271734;19;20470;-50
2023/05/03 02:12:44;;;;;;;3.35;1.35;;;;;;;4.82;100.00;99367.00;15270678;19;20010;-49
2023/05/03 02:18:12;;;;;;;2.22;1.40;;;;;;;4.65;100.00;99362.78;15266435;19;20015;-44
2023/05/03 02:23:37;;;;;;;2.67;1.20;;;;;;;4.53;100.00;99368.91;15269542;19;20016;-46
2023/05/03 02:29:02;;;;;;;3.03;1.30;;;;;;;4.46;100.00;99373.78;15268046;19;20356;-44
2023/05/03 02:34:32;;;;;;;3.00;1.30;;;;;;;4.44;100.00;99378.38;15281560;19;20266;-48
2023/05/03 02:39:57;;;;;;;2.58;1.35;;;;;;;4.43;100.00;99377.53;15266657;19;20606;-45
2023/05/03 02:45:21;;;;;;;2.97;1.50;;;;;;;4.43;100.00;99380.19;15270964;19;20134;-43
2023/05/03 02:50:55;;;;;;;3.22;1.30;;;;;;;4.44;100.00;99383.69;15260304;19;20027;-47
2023/05/03 02:56:20;;;;;;;3.08;1.27;;;;;;;4.42;100.00;99389.16;14757950;19;10000033;-43
2023/05/03 03:01:46;;;;;;;2.75;1.38;;;;;;;4.39;100.00;99393.84;15271146;19;20014;-51
2023/05/03 03:07:13;;;;;;;2.92;1.48;;;;;;;4.35;100.00;99393.16;15265498;19;20500;-44
2023/05/03 03:12:41;;;;;;;3.28;1.40;;;;;;;4.32;100.00;99394.22;15268829;19;20094;-43
2023/05/03 03:18:12;;;;;;;2.92;1.50;;;;;;;4.26;100.00;99405.28;15262294;19;20093;-43
2023/05/03 03:23:40;;;;;;;2.65;1.40;;;;;;;4.19;100.00;99408.44;15262539;19;20039;-44
2023/05/03 03:29:04;;;;;;;2.92;1.30;;;;;;;4.14;100.00;99412.22;15264123;19;20014;-43
2023/05/03 03:34:29;;;;;;;4.85;1.60;;;;;;;4.09;100.00;99418.78;15266197;19;20500;-44
2023/05/03 03:39:57;;;;;;;3.67;1.60;;;;;;;4.04;100.00;99423.56;15262518;19;20502;-43
2023/05/03 03:45:23;;;;;;;5.28;1.58;;;;;;;3.96;100.00;99427.56;15265492;19;20017;-43
2023/05/03 03:50:56;;;;;;;2.97;1.70;;;;;;;3.96;100.00;99429.38;15261252;19;20043;-46
2023/05/03 03:56:29;;;;;;;3.33;1.60;;;;;;;3.92;100.00;99434.06;15258878;19;20593;-45
2023/05/03 04:01:55;;;;;;;3.67;1.60;;;;;;;3.92;100.00;99423.38;15264871;19;20039;-44
2023/05/03 04:07:20;;;;;;;5.72;1.70;;;;;;;3.94;100.00;99440.13;15263989;19;20014;-44
2023/05/03 04:12:41;;;;;;;4.90;1.73;;;;;;;3.96;100.00;99435.56;15264759;19;20014;-44
2023/05/03 04:18:07;;;;;;;2.78;1.73;;;;;;;3.90;100.00;99446.59;15258982;19;20507;-45
2023/05/03 04:23:33;;;;;;;3.15;1.70;;;;;;;3.84;100.00;99463.84;15271433;19;20701;-45
2023/05/03 04:29:05;;;;;;;6.50;1.80;;;;;;;3.80;100.00;99466.78;15270310;19;20019;-45
2023/05/03 04:34:31;;;;;;;3.47;1.90;;;;;;;3.78;100.00;99479.34;15277679;19;20785;-44
2023/05/03 04:39:56;;;;;;;3.80;1.90;;;;;;;3.78;100.00;99485.50;15271223;19;20024;-44
2023/05/03 04:45:28;;;;;;;3.72;1.70;;;;;;;3.80;100.00;99488.94;15275126;19;20014;-43
2023/05/03 04:51:03;;;;;;;;;;;;;;;3.87;100.00;99483.28;15272091;19;20526;-44
2023/05/03 04:56:30;;;;;;;2.90;1.73;;;;;;;3.93;100.00;99493.56;15273366;19;19923;-46
2023/05/03 05:02:02;;;;;;;3.40;1.70;;;;;;;3.98;100.00;99497.66;15274715;19;20023;-43
2023/05/03 05:07:27;;;;;;;3.38;1.67;;;;;;;4.09;100.00;99506.81;15276779;19;20039;-45
2023/05/03 05:12:54;;;;;;;2.13;1.35;;;;;;;4.17;100.00;99507.22;15277777;19;20479;-43
2023/05/03 05:18:21;;;;;;;2.40;1.80;;;;;;;4.30;100.00;99507.31;15275779;19;20018;-48
2023/05/03 05:23:50;;;;;;;5.75;1.80;;;;;;;4.40;100.00;99507.63;15276720;19;20021;-43
2023/05/03 05:29:16;;;;;;;3.35;1.90;;;;;;;4.53;100.00;99508.53;15269132;19;20078;-44
2023/05/03 05:34:47;;;;;;;4.63;1.75;;;;;;;4.65;100.00;99514.06;15266424;19;20010;-45
2023/05/03 05:40:14;;;;;;;4.68;1.80;;;;;;;4.82;100.00;99526.38;15269597;19;20037;-44
2023/05/03 05:45:41;;;;;;;3.28;1.70;;;;;;;4.93;100.00;99530.06;15266047;19;20010;-47
2023/05/03 05:51:16;;;;;;;2.35;1.40;;;;;;;5.09;100.00;99531.75;15282000;19;20011;-82
2023/05/03 05:56:40;;;;;;;2.70;1.35;;;;;;;5.21;100.00;99530.97;15291252;19;20022;-81
2023/05/03 06:02:06;;;;;;;2.03;1.40;;;;;;;5.44;100.00;99523.25;15297465;19;20050;-83
2023/05/03 06:07:33;;;;;;;2.70;1.20;;;;;;;5.51;100.00;99527.22;15293956;19;20361;-83
2023/05/03 06:12:58;;;;;;;3.70;1.15;;;;;;;5.68;100.00;99518.06;15293071;19;20027;-83
2023/05/03 06:18:24;;;;;;;3.03;1.20;;;;;;;5.86;100.00;99515.97;15330937;19;20010;-82
2023/05/03 06:23:53;;;;;;;3.20;1.10;;;;;;;6.03;100.00;99518.50;15288785;19;20018;-83
2023/05/03 06:29:17;;;;;;;2.88;1.23;;;;;;;6.17;100.00;99519.25;15281032;19;20053;-83
2023/05/03 06:34:43;;;;;;;5.07;1.13;;;;;;;6.34;100.00;99527.94;15280531;19;20451;-81
2023/05/03 06:40:11;;;;;;;2.83;1.10;;;;;;;6.50;100.00;99518.84;15305988;19;20040;-83
2023/05/03 06:45:36;;;;;;;2.83;1.15;;;;;;;6.61;100.00;99525.13;15286840;19;20011;-83
2023/05/03 06:51:07;;;;;;;3.60;1.10;;;;;;;6.71;100.00;99527.16;15287293;19;20470;-83
2023/05/03 06:56:35;;;;;;;4.53;1.33;;;;;;;6.84;100.00;99517.28;15290351;19;20003;-83
2023/05/03 07:01:59;;;;;;;3.90;1.20;;;;;;;6.97;100.00;99516.38;15306689;19;20042;-82
2023/05/03 07:07:24;;;;;;;2.45;1.10;;;;;;;7.03;100.00;99516.81;15288479;19;20346;-83
2023/05/03 07:12:51;;;;;;;3.53;1.15;;;;;;;7.14;100.00;99518.72;15289718;19;20006;-84
2023/05/03 07:18:16;;;;;;;2.38;1.00;;;;;;;7.30;100.00;99514.88;15295472;19;20490;-83
2023/05/03 07:23:41;;;;;;;2.65;1.05;;;;;;;7.38;100.00;99513.34;15301978;19;20021;-82
2023/05/03 07:29:09;;;;;;;3.72;1.20;;;;;;;7.43;100.00;99509.50;15287452;19;20015;-83
2023/05/03 07:34:41;;;;;;;2.00;0.93;;;;;;;7.51;100.00;99509.75;15275249;19;20377;-43
2023/05/03 07:40:08;;;;;;;2.70;0.97;;;;;;;7.67;100.00;99502.28;15256465;19;20439;-45
2023/05/03 07:45:36;;;;;;;2.78;1.02;;;;;;;7.82;100.00;99502.09;15252254;19;20011;-43
2023/05/03 07:51:03;;;;;;;3.17;1.13;;;;;;;7.89;100.00;99495.28;15256119;19;20015;-45
2023/05/03 07:56:28;;;;;;;2.60;1.20;;;;;;;7.92;100.00;99495.06;15258061;19;20015;-44
2023/05/03 08:01:55;;;;;;;1.92;1.10;;;;;;;7.99;100.00;99492.75;14763235;19;10000381;-44
2023/05/03 08:07:20;;;;;;;4.18;1.30;;;;;;;7.99;100.00;99487.38;15270536;19;20070;-48
2023/05/03 08:12:46;;;;;;;1.98;1.10;;;;;;;8.00;100.00;99489.06;15273985;19;20938;-47
2023/05/03 08:18:14;;;;;;;3.15;1.23;;;;;;;8.07;100.00;99492.13;15266324;19;20022;-47
2023/05/03 08:23:41;;;;;;;2.55;1.10;;;;;;;8.25;100.00;99485.34;15255169;19;20021;-46
2023/05/03 08:29:05;;;;;;;2.20;1.27;;;;;;;8.41;100.00;99487.69;15270738;19;20021;-45
2023/05/03 08:34:32;;;;;;;2.83;1.40;;;;;;;8.59;100.00;99490.78;15271137;19;20018;-46
2023/05/03 08:39:57;;;;;;;3.33;1.30;;;;;;;8.88;100.00;99484.88;15266715;19;20010;-44
2023/05/03 08:45:21;;;;;;;2.80;1.30;;;;;;;9.10;100.00;99481.31;15270438;19;20006;-46
2023/05/03 08:50:50;;;;;;;3.13;1.23;;;;;;;9.33;100.00;99480.41;15264958;19;20118;-46
2023/05/03 08:56:25;;;;;;;3.00;1.30;;;;;;;9.34;100.00;99480.25;15270447;19;20019;-45
2023/05/03 09:01:51;;;;;;;3.05;1.13;;;;;;;9.42;100.00;99476.94;15270670;19;20015;-44
2023/05/03 09:07:19;;;;;;;3.28;1.40;;;;;;;9.56;100.00;99478.47;15267550;19;20014;-46
2023/05/03 09:12:45;;;;;;;3.63;1.30;;;;;;;9.68;100.00;99477.44;15268789;19;20489;-46
2023/05/03 09:18:15;;;;;;;2.35;1.35;;;;;;;9.80;100.00;99470.19;15261853;19;20025;-46
2023/05/03 09:23:42;;;;;;;3.08;1.27;;;;;;;9.81;100.00;99477.25;15268663;19;20382;-45
2023/05/03 09:29:08;;;;;;;2.70;1.30;;;;;;;9.70;100.00;99469.25;15264334;19;20370;-47
2023/05/03 09:34:33;;;;;;;5.45;1.30;;;;;;;9.86;100.00;99463.41;15265731;19;20618;-45
2023/05/03 09:40:16;;;;;;;2.53;1.40;;;;;;;9.62;100.00;99469.03;15262479;19;20021;-49
2023/05/03 09:45:41;;;;;;;4.22;1.50;;;;;;;9.65;100.00;99452.63;15265919;19;20017;-47
2023/05/03 09:51:07;;;;;;;3.42;1.40;;;;;;;9.75;100.00;99450.00;15256692;19;20686;-48
2023/05/03 09:56:35;;;;;;;2.78;1.40;;;;;;;9.74;100.00;99440.25;15264574;19;20432;-48
2023/05/03 10:02:10;;;;;;;3.08;1.40;;;;;;;9.98;100.00;99448.91;15266618;19;21036;-44
2023/05/03 10:07:36;;;;;;;3.45;1.50;;;;;;;10.11;100.00;99448.69;15262389;19;20010;-46
2023/05/03 10:13:04;;;;;;;4.05;1.63;;;;;;;10.07;100.00;99444.53;15262981;19;20024;-44
2023/05/03 10:18:33;;;;;;;2.60;1.20;;;;;;;9.90;100.00;99445.16;15258307;19;20014;-47
2023/05/03 10:24:20;;;;;;;3.67;1.45;;;;;;;9.91;100.00;99444.16;15259918;19;20025;-49
2023/05/03 10:29:53;;;;;;;3.78;1.40;;;;;;;10.38;100.00;99441.91;15259042;19;20382;-48
2023/05/03 10:35:20;;;;;;;5.47;1.50;;;;;;;10.12;100.00;99436.94;15258074;19;20482;-48
2023/05/03 10:40:46;;;;;;;2.97;1.30;;;;;;;10.44;100.00;99438.66;15259425;19;20010;-50
2023/05/03 10:46:17;;;;;;;4.40;1.40;;;;;;;10.37;100.00;99432.09;15259296;19;20367;-44
2023/05/03 10:51:44;;;;;;;3.42;1.30;;;;;;;10.30;100.00;99438.97;15253743;19;20024;-45
2023/05/03 10:57:08;;;;;;;5.55;1.40;;;;;;;10.71;100.00;99434.50;15254173;19;20046;-49
2023/05/03 11:02:41;;;;;;;3.10;1.40;;;;;;;10.85;100.00;99443.22;15260547;19;20061;-45
2023/05/03 11:08:18;;;;;;;3.05;1.20;;;;;;;11.01;100.00;99440.81;15256754;19;20010;-44
2023/05/03 11:13:43;;;;;;;3.58;1.35;;;;;;;10.94;99.75;99443.22;15259812;19;20064;-44
2023/05/03 11:19:11;;;;;;;2.50;1.30;;;;;;;11.14;100.00;99437.00;15255745;19;20033;-45
2023/05/03 11:24:36;;;;;;;2.63;1.33;;;;;;;11.34;92.49;99432.50;15259883;19;20086;-50
2023/05/03 11:30:00;;;;;;;4.00;1.30;;;;;;;11.38;100.00;99433.91;15249253;19;20577;-48
2023/05/03 11:35:36;;;;;;;2.95;1.40;;;;;;;11.64;100.00;99426.09;15270340;19;20037;-46
2023/05/03 11:41:01;;;;;;;4.35;1.30;;;;;;;11.83;96.76;99429.75;15274172;19;20035;-48
2023/05/03 11:46:27;;;;;;;5.03;1.50;;;;;;;11.95;100.00;99423.19;15282518;19;20019;-48
2023/05/03 11:51:55;;;;;;;1.98;1.20;;;;;;;12.10;100.00;99422.78;15283366;19;20019;-45
2023/05/03 11:57:21;;;;;;;2.97;1.23;;;;;;;12.32;99.02;99410.75;15280400;19;20576;-45
2023/05/03 12:02:46;;;;;;;2.47;1.10;;;;;;;12.22;84.86;99416.19;15272818;19;20025;-46
2023/05/03 12:08:14;;;;;;;2.88;1.20;;;;;;;12.36;91.48;99416.72;15277946;19;20074;-46
2023/05/03 12:13:43;;;;;;;1.87;1.10;;;;;;;12.08;88.64;99425.63;15282181;19;20029;-46
2023/05/03 12:19:08;;;;;;;1.77;1.08;;;;;;;12.31;97.91;99418.00;15276750;19;20306;-45
2023/05/03 12:24:36;;;;;;;2.35;1.20;;;;;;;12.65;85.11;99400.38;15281547;19;20366;-46
2023/05/03 12:30:02;;;;;;;4.40;1.30;;;;;;;12.97;81.52;99400.91;15277043;19;20089;-46
2023/05/03 12:35:28;;;;;;;2.08;1.20;;;;;;;13.17;84.71;99388.91;15273793;19;20022;-45
2023/05/03 12:40:59;;;;;;;2.53;1.10;;;;;;;13.16;76.35;99403.44;15276439;19;20493;-45
2023/05/03 12:46:26;;;;;;;2.60;1.20;;;;;;;13.63;77.52;99391.56;15277658;19;20009;-45
2023/05/03 12:51:54;;;;;;;3.10;1.38;;;;;;;13.84;76.52;99388.47;15279983;19;20470;-47
2023/05/03 12:57:41;;;;;;;2.15;0.90;;;;;;;14.06;66.17;99386.25;15276245;19;20566;-50
2023/05/03 13:03:26;;;;;;;2.25;1.10;;;;;;;14.33;69.88;99385.22;15274827;19;20488;-52
2023/05/03 13:09:01;;;;;;;2.13;1.10;;;;;;;14.30;67.56;99373.84;15274589;19;20029;-49
2023/05/03 13:14:29;;;;;;;3.15;1.30;;;;;;;14.22;67.91;99377.38;15278460;19;20032;-49
2023/05/03 13:19:55;;;;;;;3.03;1.20;;;;;;;14.75;66.19;99372.72;15271837;19;20022;-49
2023/05/03 13:25:19;;;;;;;2.65;1.20;;;;;;;14.99;65.85;99373.78;15271406;19;20466;-46
2023/05/03 13:30:47;;;;;;;2.67;1.20;;;;;;;15.06;65.46;99361.25;15271679;19;20073;-45
2023/05/03 13:36:13;;;;;;;2.95;1.20;;;;;;;15.10;67.69;99362.63;15267322;19;20020;-46
2023/05/03 13:47:06;;;;;;;3.83;1.50;;;;;;;14.78;69.76;99355.25;15296646;19;20019;-84
2023/05/03 13:52:33;;;;;;;3.03;1.38;;;;;;;14.39;65.90;99351.19;15300724;19;20017;-86
2023/05/03 13:57:58;;;;;;;2.78;1.20;;;;;;;15.26;67.78;99347.34;15289005;19;20380;-83
2023/05/03 14:03:28;;;;;;;4.70;1.25;;;;;;;15.85;61.60;99338.16;15298008;19;20010;-82
2023/05/03 14:08:56;;;;;;;3.03;1.30;;;;;;;16.33;62.09;99338.22;15296546;19;20014;-82
2023/05/03 14:14:16;;;;;;;2.95;1.20;;;;;;;16.59;60.90;99339.78;15297594;19;20018;-82
2023/05/03 14:19:56;;;;;;;4.45;1.33;;;;;;;17.04;58.96;99327.31;15332110;19;20130;-51
2023/05/03 14:25:22;;;;;;;5.43;1.40;;;;;;;17.13;56.05;99322.63;15342214;19;20032;-51
2023/05/03 14:30:46;;;;;;;4.63;1.38;;;;;;;17.19;59.15;99316.47;15342272;19;20014;-53
2023/05/03 14:36:15;;;;;;;3.40;1.20;;;;;;;17.59;56.93;99324.47;15339112;19;20377;-54
2023/05/03 14:41:39;;;;;;;3.22;1.30;;;;;;;17.57;56.39;99321.06;15334951;19;20020;-53
2023/05/03 14:47:05;;;;;;;5.65;1.35;;;;;;;17.50;55.61;99317.41;15338907;19;20025;-52
2023/05/03 14:52:33;;;;;;;2.58;1.23;;;;;;;17.42;54.79;99312.88;15336976;19;20021;-48
2023/05/03 14:57:58;;;;;;;5.90;1.30;;;;;;;17.56;53.14;99317.53;15326665;19;20031;-49
2023/05/03 15:03:23;;;;;;;5.72;1.33;;;;;;;16.75;54.44;99307.03;15333244;19;20014;-49
2023/05/03 15:08:53;;;;;;;3.83;1.23;;;;;;;17.47;52.87;99288.63;15339111;19;20498;-48
2023/05/03 15:14:18;;;;;;;3.55;1.20;;;;;;;17.72;52.43;99291.13;15329410;19;20018;-50
2023/05/03 15:19:44;;;;;;;2.50;1.00;;;;;;;17.85;50.00;99298.66;15330437;19;20010;-52
2023/05/03 15:25:11;;;;;;;2.42;1.00;;;;;;;17.93;49.37;99300.47;15340615;19;20013;-53
2023/05/03 15:30:36;;;;;;;5.45;1.30;;;;;;;17.96;48.54;99294.59;15284782;19;20011;-56
2023/05/03 15:36:00;;;;;;;6.60;1.10;;;;;;;18.20;48.86;99285.34;15276575;19;20037;-50
2023/05/03 15:41:28;;;;;;;2.38;1.10;;;;;;;18.28;47.83;99287.13;15278772;19;20014;-48
2023/05/03 15:46:53;;;;;;;3.75;1.10;;;;;;;18.31;49.92;99282.13;15272889;19;20372;-51
2023/05/03 15:52:18;;;;;;;4.55;1.25;;;;;;;17.93;49.53;99286.81;15276346;19;20011;-49
2023/05/03 15:57:45;;;;;;;2.10;1.00;;;;;;;17.91;50.18;99272.53;15275117;19;20705;-53
2023/05/03 16:03:11;;;;;;;2.58;1.00;;;;;;;18.13;49.93;99276.19;15274752;19;20357;-50
2023/05/03 16:08:37;;;;;;;2.10;1.00;;;;;;;18.10;48.79;99263.81;15275522;19;20012;-49
2023/05/03 16:14:08;;;;;;;6.53;1.10;;;;;;;18.15;48.63;99265.97;15273291;19;20033;-53
2023/05/03 16:19:34;;;;;;;3.03;1.13;;;;;;;18.15;48.92;99263.22;15267637;19;20015;-51
2023/05/03 16:24:59;;;;;;;4.10;1.20;;;;;;;18.23;48.26;99259.56;15278787;19;20018;-51
2023/05/03 16:30:27;;;;;;;2.28;0.80;;;;;;;18.17;49.68;99253.81;15276158;19;20442;-54
2023/05/03 16:35:52;;;;;;;4.10;1.10;;;;;;;18.07;49.60;99241.53;15273825;19;20090;-51
2023/05/03 16:41:16;;;;;;;2.90;1.05;;;;;;;18.02;50.57;99250.28;15272273;19;20016;-49
2023/05/03 16:46:45;;;;;;;4.03;1.10;;;;;;;17.95;51.70;99249.28;15274683;19;20484;-50
2023/05/03 16:52:09;;;;;;;1.77;0.90;;;;;;;18.01;50.63;99248.59;15268193;19;20077;-51
2023/05/03 16:57:35;;;;;;;2.15;0.90;;;;;;;17.77;49.79;99245.09;15270642;19;20093;-51
2023/05/03 17:03:03;;;;;;;3.33;1.20;;;;;;;17.77;50.17;99241.50;15269380;19;20546;-53
2023/05/03 17:08:29;;;;;;;3.20;1.00;;;;;;;17.55;49.71;99242.25;15268292;19;20014;-48
2023/05/03 17:13:54;;;;;;;4.97;1.27;;;;;;;17.39;51.15;99246.00;15266736;19;20014;-56
2023/05/03 17:19:31;;;;;;;3.58;1.27;;;;;;;17.18;50.69;99241.25;15269159;19;20038;-54
2023/05/03 17:24:59;;;;;;;2.10;1.08;;;;;;;16.93;50.79;99235.16;15266721;19;20029;-56
2023/05/03 17:30:24;;;;;;;3.20;1.00;;;;;;;16.86;52.34;99243.19;15271435;19;20022;-52
2023/05/03 17:35:53;;;;;;;5.80;1.20;;;;;;;16.69;51.75;99244.31;15268747;19;20020;-47
2023/05/03 17:41:18;;;;;;;3.22;1.20;;;;;;;16.41;53.91;99242.97;15273575;19;20027;-47
2023/05/03 17:46:43;;;;;;;2.45;1.15;;;;;;;16.25;54.45;99241.19;15274358;19;20434;-47
2023/05/03 17:52:10;;;;;;;5.88;1.10;;;;;;;16.00;55.89;99241.31;15269189;19;20015;-46
2023/05/03 17:57:36;;;;;;;2.53;1.08;;;;;;;15.74;55.46;99243.41;15263726;19;20014;-49
2023/05/03 18:03:00;;;;;;;3.83;1.20;;;;;;;15.51;55.89;99246.88;15270411;19;20037;-52
2023/05/03 18:08:27;;;;;;;5.07;1.25;;;;;;;15.18;57.91;99252.34;15271480;19;20403;-50
2023/05/03 18:13:52;;;;;;;3.78;1.10;;;;;;;14.85;58.52;99255.06;15269365;19;20028;-49
2023/05/03 18:19:24;;;;;;;3.95;1.27;;;;;;;14.39;60.14;99261.75;15267961;19;20029;-47
2023/05/03 18:24:55;;;;;;;3.35;1.02;;;;;;;13.86;61.66;99261.88;15271308;19;20097;-45
2023/05/03 18:30:21;;;;;;;4.95;1.30;;;;;;;13.44;64.70;99259.06;15264725;19;20027;-47
2023/05/03 18:35:49;;;;;;;4.85;1.98;;;;;;;12.92;66.78;99268.81;15267478;19;20007;-49
2023/05/03 18:41:20;;;;;;;6.00;2.95;;;;;;;12.31;73.61;99271.25;15269582;19;20014;-48
2023/05/03 18:46:45;;;;;;;3.83;1.80;;;;;;;12.04;78.55;99261.31;15267851;19;20035;-50
2023/05/03 18:52:09;;;;;;;3.72;1.05;;;;;;;11.57;84.91;99263.03;15266269;19;20378;-52
2023/05/03 18:57:39;;;;;;;5.68;1.10;;;;;;;11.31;91.28;99271.75;15265732;19;20015;-50
2023/05/03 19:03:05;;;;;;;3.97;1.20;;;;;;;11.04;92.99;99267.97;15260880;19;20014;-52
2023/05/03 19:08:30;;;;;;;6.13;1.17;;;;;;;10.69;100.00;99271.25;15276459;19;20035;-50
2023/05/03 19:13:57;;;;;;;3.50;1.08;;;;;;;10.52;100.00;99276.31;15275736;19;20118;-52
2023/05/03 19:19:28;;;;;;;3.33;0.98;;;;;;;10.33;100.00;99271.72;15275062;19;20021;-49
2023/05/03 19:24:54;;;;;;;4.68;1.20;;;;;;;10.16;100.00;99275.94;15277505;19;20036;-51
2023/05/03 19:30:24;;;;;;;2.97;1.17;;;;;;;9.97;100.00;99274.03;15277034;19;20020;-49
2023/05/03 19:35:50;;;;;;;3.08;1.15;;;;;;;9.82;100.00;99274.41;15274998;19;20082;-51
2023/05/03 19:41:15;;;;;;;2.72;1.20;;;;;;;9.65;100.00;99272.34;15273214;19;20015;-49
2023/05/03 19:46:43;;;;;;;3.72;1.25;;;;;;;9.48;100.00;99276.50;15277807;19;20357;-50
2023/05/03 19:52:08;;;;;;;4.97;1.30;;;;;;;9.32;100.00;99260.84;15278531;19;20499;-47
2023/05/03 19:57:33;;;;;;;3.05;1.20;;;;;;;9.15;100.00;99263.16;15278792;19;20006;-51
2023/05/03 20:03:00;;;;;;;3.78;1.23;;;;;;;8.98;100.00;99259.22;15275169;19;20021;-54
2023/05/03 20:08:26;;;;;;;4.18;1.30;;;;;;;8.89;100.00;99268.91;15278319;19;20016;-54
2023/05/03 20:13:51;;;;;;;3.63;1.30;;;;;;;8.74;100.00;99267.53;15272532;19;20010;-51
2023/05/03 20:19:26;;;;;;;1.77;1.00;;;;;;;8.63;100.00;99255.84;15273358;19;20019;-53
2023/05/03 20:24:52;;;;;;;4.05;1.52;;;;;;;8.43;100.00;99254.78;15280735;19;20070;-51
2023/05/03 20:30:17;;;;;;;3.13;1.67;;;;;;;8.34;100.00;99250.19;15276362;19;20015;-53
2023/05/03 20:35:45;;;;;;;4.15;1.40;;;;;;;8.21;100.00;99250.31;15274296;19;20021;-53
2023/05/03 20:41:11;;;;;;;3.53;1.30;;;;;;;8.06;100.00;99252.44;15272098;19;20028;-48
2023/05/03 20:46:37;;;;;;;4.43;1.70;;;;;;;7.90;100.00;99255.50;15274605;19;20046;-46
2023/05/03 20:52:05;;;;;;;3.97;1.52;;;;;;;7.75;100.00;99248.69;15272214;19;20014;-53
2023/05/03 20:57:30;;;;;;;2.92;1.20;;;;;;;7.67;100.00;99255.53;15270565;19;20015;-52
2023/05/03 21:02:54;;;;;;;3.20;1.25;;;;;;;7.56;100.00;99256.38;15273952;19;20014;-52
2023/05/03 21:08:22;;;;;;;3.28;1.50;;;;;;;7.47;100.00;99262.47;15274825;19;20126;-51
2023/05/03 21:13:46;;;;;;;3.83;1.60;;;;;;;7.36;100.00;99254.41;15274429;19;20018;-48
2023/05/03 21:19:11;;;;;;;3.78;1.55;;;;;;;7.32;100.00;99259.16;15269888;19;20021;-49
2023/05/03 21:24:38;;;;;;;2.55;1.55;;;;;;;7.21;100.00;99251.09;15268510;19;20014;-53
2023/05/03 21:30:06;;;;;;;4.32;1.60;;;;;;;7.11;100.00;99256.31;15274600;19;20448;-52
2023/05/03 21:35:32;;;;;;;4.22;1.58;;;;;;;6.93;100.00;99259.44;15271320;19;20354;-50
2023/05/03 21:41:06;;;;;;;5.78;1.60;;;;;;;6.88;100.00;99252.75;15260709;19;20081;-51
2023/05/03 21:46:31;;;;;;;3.67;1.60;;;;;;;6.79;100.00;99257.81;15265813;19;20023;-49
2023/05/03 21:51:57;;;;;;;2.60;1.40;;;;;;;6.71;100.00;99260.22;15269656;19;20054;-53
2023/05/03 21:57:24;;;;;;;2.83;1.40;;;;;;;6.62;100.00;99260.91;15270097;19;20034;-53
2023/05/03 22:02:50;;;;;;;3.40;1.50;;;;;;;6.59;100.00;99261.13;15270275;19;20041;-50
2023/05/03 22:08:17;;;;;;;3.22;1.50;;;;;;;6.53;100.00;99261.59;15267958;19;20029;-55
2023/05/03 22:13:45;;;;;;;4.38;1.60;;;;;;;6.45;100.00;99260.34;15265239;19;20479;-51
2023/05/03 22:19:31;;;;;;;5.90;1.80;;;;;;;6.36;100.00;99244.97;15266328;19;20026;-51
2023/05/03 22:24:57;;;;;;;3.57;1.60;;;;;;;6.27;100.00;99245.66;15271812;19;20010;-51
2023/05/03 22:30:24;;;;;;;4.80;1.60;;;;;;;6.23;100.00;99238.81;15270594;19;20463;-56
2023/05/03 22:35:49;;;;;;;4.68;1.70;;;;;;;6.13;100.00;99239.50;15269811;19;20025;-52
2023/05/03 22:41:14;;;;;;;2.92;1.60;;;;;;;6.09;100.00;99240.69;15277494;19;20007;-48
2023/05/03 22:46:42;;;;;;;2.70;1.52;;;;;;;6.06;100.00;99243.56;15280644;19;20037;-54
2023/05/03 22:52:07;;;;;;;3.33;1.40;;;;;;;6.03;100.00;99234.94;15279167;19;20020;-52
2023/05/03 22:57:33;;;;;;;2.63;1.50;;;;;;;5.94;100.00;99233.78;15278304;19;20078;-52
2023/05/03 23:03:00;;;;;;;3.42;1.50;;;;;;;5.87;100.00;99236.03;15280214;19;20019;-48
2023/05/03 23:08:25;;;;;;;3.80;1.45;;;;;;;5.74;100.00;99228.03;15283430;19;20111;-48
2023/05/03 23:13:49;;;;;;;3.55;1.70;;;;;;;5.70;100.00;99232.75;15279668;19;20030;-50
2023/05/03 23:19:17;;;;;;;2.65;1.58;;;;;;;5.68;100.00;99223.13;15272111;19;20029;-52
2023/05/03 23:24:41;;;;;;;3.63;1.60;;;;;;;5.62;100.00;99234.25;15279542;19;20073;-49
2023/05/03 23:30:07;;;;;;;5.55;1.60;;;;;;;5.58;100.00;99219.41;15282486;19;20021;-48
2023/05/03 23:35:35;;;;;;;4.47;1.63;;;;;;;5.41;100.00;99226.78;15282115;19;20070;-49
2023/05/03 23:41:00;;;;;;;3.78;1.60;;;;;;;5.32;100.00;99216.78;15277164;19;20022;-48
2023/05/03 23:46:24;;;;;;;6.72;1.75;;;;;;;5.29;100.00;99212.50;15279344;19;20085;-48
2023/05/03 23:51:53;;;;;;;3.85;1.60;;;;;;;5.23;100.00;99213.75;15273745;19;20475;-51
2023/05/03 23:57:18;;;;;;;5.38;1.65;;;;;;;5.22;100.00;99208.53;15277963;19;20344;-51
